createdAt,value
2022-10-05T00:01:56.813Z,11.33
2022-10-05T00:04:28.998Z,11.40
2022-10-05T00:07:03.986Z,11.63
2022-10-05T00:09:35.101Z,11.57
2022-10-05T00:12:15.050Z,11.90
2022-10-05T00:14:47.406Z,14.40
2022-10-05T00:17:19.948Z,9.93
2022-10-05T00:19:52.158Z,10.17
2022-10-05T00:22:24.330Z,14.13
2022-10-05T00:24:59.652Z,13.13
2022-10-05T00:27:33.497Z,10.30
2022-10-05T00:30:15.356Z,13.83
2022-10-05T00:32:44.753Z,13.37
2022-10-05T00:35:14.858Z,13.70
2022-10-05T00:37:43.776Z,10.53
2022-10-05T00:40:34.392Z,10.80
2022-10-05T00:43:25.466Z,15.70
2022-10-05T00:46:01.897Z,11.17
2022-10-05T00:48:39.136Z,10.13
2022-10-05T00:51:26.278Z,10.43
2022-10-05T00:54:13.633Z,14.03
2022-10-05T00:57:05.620Z,14.30
2022-10-05T00:59:50.359Z,11.87
2022-10-05T01:02:30.856Z,10.50
2022-10-05T01:05:08.875Z,24.13
2022-10-05T01:07:46.925Z,13.00
2022-10-05T01:10:24.241Z,11.80
2022-10-05T01:13:04.903Z,12.60
2022-10-05T01:15:38.115Z,12.80
2022-10-05T01:18:16.699Z,11.97
2022-10-05T01:20:57.269Z,11.90
2022-10-05T01:24:08.412Z,12.03
2022-10-05T01:27:09.026Z,12.13
2022-10-05T01:29:45.149Z,11.93
2022-10-05T01:32:20.461Z,13.30
2022-10-05T01:35:00.616Z,13.10
2022-10-05T01:37:42.065Z,16.60
2022-10-05T01:40:20.590Z,12.07
2022-10-05T01:43:03.788Z,10.47
2022-10-05T01:45:44.868Z,11.50
2022-10-05T01:48:21.862Z,13.30
2022-10-05T01:51:02.698Z,14.03
2022-10-05T01:53:46.393Z,12.47
2022-10-05T01:56:26.504Z,11.03
2022-10-05T01:59:05.824Z,9.50
2022-10-05T02:01:44.233Z,11.50
2022-10-05T02:04:42.774Z,8.80
2022-10-05T02:07:15.136Z,16.63
2022-10-05T02:09:52.048Z,10.40
2022-10-05T02:12:24.906Z,13.43
2022-10-05T02:15:07.945Z,9.67
2022-10-05T02:17:44.719Z,11.87
2022-10-05T02:20:23.909Z,12.90
2022-10-05T02:22:55.663Z,11.13
2022-10-05T02:25:30.311Z,12.87
2022-10-05T02:28:05.152Z,17.93
2022-10-05T02:30:40.761Z,11.10
2022-10-05T02:33:16.417Z,10.63
2022-10-05T02:35:44.965Z,11.53
2022-10-05T02:38:22.635Z,12.27
2022-10-05T02:41:03.177Z,13.27
2022-10-05T02:43:43.124Z,11.80
2022-10-05T02:46:25.081Z,13.03
2022-10-05T02:49:08.681Z,31.97
2022-10-05T02:51:46.966Z,12.83
2022-10-05T02:54:31.211Z,10.33
2022-10-05T02:57:04.425Z,14.40
2022-10-05T02:59:40.226Z,11.33
2022-10-05T03:02:18.554Z,14.07
2022-10-05T03:05:01.831Z,16.30
2022-10-05T03:07:38.267Z,13.17
2022-10-05T03:10:13.404Z,12.17
2022-10-05T03:12:53.412Z,11.20
2022-10-05T03:15:58.666Z,11.63
2022-10-05T03:18:45.141Z,15.20
2022-10-05T03:21:28.625Z,13.00
2022-10-05T03:24:18.222Z,17.03
2022-10-05T03:26:54.658Z,14.07
2022-10-05T03:29:34.101Z,16.00
2022-10-05T03:32:15.869Z,14.27
2022-10-05T03:34:50.412Z,17.83
2022-10-05T03:37:29.120Z,19.40
2022-10-05T03:40:04.602Z,17.70
2022-10-05T03:42:42.787Z,13.00
2022-10-05T03:45:24.411Z,14.30
2022-10-05T03:48:02.752Z,19.50
2022-10-05T03:50:46.732Z,15.37
2022-10-05T03:53:21.085Z,15.20
2022-10-05T03:55:57.703Z,17.13
2022-10-05T03:58:34.009Z,15.23
2022-10-05T04:01:10.162Z,34.17
2022-10-05T04:03:45.094Z,35.83
2022-10-05T04:06:18.051Z,36.50
2022-10-05T04:08:56.220Z,40.57
2022-10-05T04:11:33.389Z,33.10
2022-10-05T04:14:07.386Z,33.97
2022-10-05T04:16:42.003Z,33.43
2022-10-05T04:19:17.935Z,32.60
2022-10-05T04:21:54.072Z,34.83
2022-10-05T04:24:32.445Z,30.73
2022-10-05T04:27:10.606Z,28.60
2022-10-05T04:29:44.231Z,31.30
2022-10-05T04:32:31.437Z,30.23
2022-10-05T04:35:27.207Z,29.73
2022-10-05T04:38:07.265Z,42.80
2022-10-05T04:40:54.201Z,34.37
2022-10-05T04:43:34.356Z,37.63
2022-10-05T04:46:18.612Z,42.53
2022-10-05T04:49:13.496Z,37.97
2022-10-05T04:51:51.974Z,42.47
2022-10-05T04:54:35.798Z,49.70
2022-10-05T04:57:13.790Z,42.53
2022-10-05T05:00:06.069Z,35.07
2022-10-05T05:03:00.660Z,33.67
2022-10-05T05:05:58.931Z,31.40
2022-10-05T05:08:58.010Z,34.87
2022-10-05T05:11:35.241Z,37.37
2022-10-05T05:14:34.602Z,35.53
2022-10-05T05:17:20.158Z,31.70
2022-10-05T05:20:00.275Z,30.63
2022-10-05T05:22:40.272Z,31.53
2022-10-05T05:25:30.186Z,25.07
2022-10-05T05:28:09.552Z,36.00
2022-10-05T05:30:47.896Z,27.17
2022-10-05T05:33:23.133Z,25.60
2022-10-05T05:36:23.017Z,27.70
2022-10-05T05:39:13.491Z,24.37
2022-10-05T05:41:59.550Z,26.40
2022-10-05T05:44:31.757Z,20.87
2022-10-05T05:47:12.093Z,24.73
2022-10-05T05:50:07.473Z,23.53
2022-10-05T05:52:42.912Z,20.77
2022-10-05T05:55:21.477Z,23.23
2022-10-05T05:57:55.753Z,19.90
2022-10-05T06:00:29.777Z,22.77
2022-10-05T06:03:09.532Z,21.03
2022-10-05T06:05:44.055Z,18.60
2022-10-05T06:08:21.114Z,20.23
2022-10-05T06:10:57.846Z,20.40
2022-10-05T06:13:33.972Z,21.23
2022-10-05T06:16:11.252Z,19.37
2022-10-05T06:18:47.911Z,22.80
2022-10-05T06:21:23.370Z,21.80
2022-10-05T06:24:00.522Z,24.97
2022-10-05T06:27:18.823Z,23.30
2022-10-05T06:30:05.265Z,27.63
2022-10-05T06:32:50.749Z,28.00
2022-10-05T06:35:44.578Z,24.17
2022-10-05T06:38:43.444Z,31.47
2022-10-05T06:41:21.680Z,29.50
2022-10-05T06:43:58.833Z,30.67
2022-10-05T06:46:51.865Z,32.73
2022-10-05T06:49:54.695Z,30.73
2022-10-05T06:53:24.058Z,36.63
2022-10-05T06:55:58.089Z,39.90
2022-10-05T06:58:51.566Z,34.20
2022-10-05T07:01:37.551Z,31.70
2022-10-05T07:04:28.248Z,24.97
2022-10-05T07:07:01.293Z,26.60
2022-10-05T07:09:43.064Z,27.70
2022-10-05T07:12:33.738Z,32.17
2022-10-05T07:15:41.311Z,26.23
2022-10-05T07:18:43.692Z,26.67
2022-10-05T07:21:24.555Z,26.43
2022-10-05T07:24:03.659Z,28.70
2022-10-05T07:26:41.029Z,25.87
2022-10-05T07:29:30.752Z,25.43
2022-10-05T07:32:10.934Z,25.90
2022-10-05T07:34:52.423Z,21.90
2022-10-05T07:37:44.708Z,22.40
2022-10-05T07:40:21.045Z,24.77
2022-10-05T07:43:08.939Z,23.67
2022-10-05T07:45:46.826Z,23.27
2022-10-05T07:48:20.614Z,22.40
2022-10-05T07:51:00.962Z,23.47
2022-10-05T07:53:38.161Z,23.23
2022-10-05T07:56:17.224Z,22.20
2022-10-05T07:58:53.500Z,25.87
2022-10-05T08:01:27.762Z,21.53
2022-10-05T08:04:06.026Z,22.53
2022-10-05T08:06:45.978Z,26.20
2022-10-05T08:09:31.279Z,18.63
2022-10-05T08:12:10.471Z,21.27
2022-10-05T08:14:52.322Z,20.80
2022-10-05T08:17:33.037Z,20.77
2022-10-05T08:20:27.258Z,18.83
2022-10-05T08:23:02.259Z,21.57
2022-10-05T08:25:44.764Z,21.93
2022-10-05T08:28:20.494Z,21.50
2022-10-05T08:31:03.398Z,28.57
2022-10-05T08:33:44.011Z,25.60
2022-10-05T08:36:14.678Z,23.20
2022-10-05T08:38:44.159Z,22.00
2022-10-05T08:42:01.845Z,27.80
2022-10-05T08:45:25.526Z,23.67
2022-10-05T08:48:50.023Z,23.10
2022-10-05T08:51:42.373Z,22.80
2022-10-05T08:54:39.466Z,23.17
2022-10-05T08:57:34.062Z,23.10
2022-10-05T09:00:13.185Z,22.60
2022-10-05T09:03:17.035Z,23.40
2022-10-05T09:06:28.636Z,23.47
2022-10-05T09:09:29.884Z,26.20
2022-10-05T09:12:58.578Z,25.90
2022-10-05T09:16:08.548Z,24.50
2022-10-05T09:19:28.021Z,26.17
2022-10-05T09:22:10.346Z,27.70
2022-10-05T09:24:56.150Z,25.87
2022-10-05T09:27:40.309Z,28.80
2022-10-05T09:30:23.510Z,26.80
2022-10-05T09:33:41.016Z,28.20
2022-10-05T09:37:17.161Z,25.87
2022-10-05T09:40:44.604Z,27.07
2022-10-05T09:43:50.088Z,23.93
2022-10-05T09:47:04.623Z,23.07
2022-10-05T09:50:22.881Z,20.20
2022-10-05T09:53:48.034Z,20.03
2022-10-05T09:56:45.402Z,22.30
2022-10-05T10:00:08.932Z,21.97
2022-10-05T10:03:45.141Z,24.13
2022-10-05T10:06:35.891Z,19.43
2022-10-05T10:09:29.735Z,19.37
2022-10-05T10:12:25.624Z,19.13
2022-10-05T10:15:51.056Z,21.10
2022-10-05T10:18:35.777Z,20.40
2022-10-05T10:21:29.416Z,23.03
2022-10-05T10:24:33.099Z,18.73
2022-10-05T10:27:27.591Z,18.37
2022-10-05T10:30:36.378Z,18.53
2022-10-05T10:33:34.044Z,19.27
2022-10-05T10:36:07.220Z,20.53
2022-10-05T10:38:47.535Z,21.20
2022-10-05T10:41:52.918Z,18.60
2022-10-05T10:45:22.862Z,17.17
2022-10-05T10:48:03.528Z,19.10
2022-10-05T10:51:13.927Z,16.97
2022-10-05T10:54:29.340Z,21.10
2022-10-05T10:57:08.079Z,19.00
2022-10-05T11:00:22.359Z,19.67
2022-10-05T11:03:49.702Z,22.83
2022-10-05T11:06:44.199Z,20.50
2022-10-05T11:09:37.162Z,17.00
2022-10-05T11:13:00.645Z,13.47
2022-10-05T11:15:57.286Z,12.07
2022-10-05T11:18:40.445Z,9.97
2022-10-05T11:21:30.437Z,9.03
2022-10-05T11:24:50.479Z,10.20
2022-10-05T11:27:59.321Z,9.63
2022-10-05T11:31:24.261Z,7.70
2022-10-05T11:34:38.055Z,7.60
2022-10-05T11:37:50.256Z,9.07
2022-10-05T11:41:11.848Z,8.50
2022-10-05T11:44:31.020Z,10.27
2022-10-05T11:47:11.431Z,10.83
2022-10-05T11:49:44.520Z,8.60
2022-10-05T11:52:19.359Z,9.30
2022-10-05T11:55:14.921Z,7.20
2022-10-05T11:57:52.201Z,8.00
2022-10-05T12:00:23.069Z,8.30
2022-10-05T12:03:38.005Z,7.13
2022-10-05T12:06:25.901Z,6.07
2022-10-05T12:09:13.843Z,6.70
2022-10-05T12:12:07.734Z,6.37
2022-10-05T12:14:51.211Z,6.23
2022-10-05T12:17:29.769Z,6.63
2022-10-05T12:20:02.616Z,5.30
2022-10-05T12:22:36.454Z,6.30
2022-10-05T12:25:25.685Z,6.27
2022-10-05T12:27:58.373Z,12.23
2022-10-05T12:30:34.593Z,11.83
2022-10-05T12:33:11.351Z,7.43
2022-10-05T12:35:49.817Z,5.73
2022-10-05T12:38:28.427Z,5.70
2022-10-05T12:41:07.306Z,8.30
2022-10-05T12:43:49.819Z,5.53
2022-10-05T12:46:28.518Z,5.67
2022-10-05T12:49:33.711Z,6.13
2022-10-05T12:52:07.138Z,7.60
2022-10-05T12:54:52.169Z,4.93
2022-10-05T12:57:30.011Z,6.90
2022-10-05T13:00:11.171Z,6.30
2022-10-05T13:02:45.688Z,6.77
2022-10-05T13:05:27.823Z,6.10
2022-10-05T13:08:17.778Z,7.40
2022-10-05T13:10:50.295Z,4.40
2022-10-05T13:13:44.784Z,7.30
2022-10-05T13:16:24.706Z,6.53
2022-10-05T13:19:09.825Z,9.47
2022-10-05T13:22:02.993Z,5.03
2022-10-05T13:24:39.042Z,5.07
2022-10-05T13:27:15.262Z,4.97
2022-10-05T13:29:54.229Z,5.20
2022-10-05T13:32:27.073Z,4.83
2022-10-05T13:35:04.226Z,4.87
2022-10-05T13:37:43.306Z,5.77
2022-10-05T13:40:23.186Z,5.30
2022-10-05T13:42:59.428Z,5.53
2022-10-05T13:45:35.666Z,7.93
2022-10-05T13:48:19.654Z,4.27
2022-10-05T13:51:03.918Z,6.93
2022-10-05T13:53:42.550Z,4.73
2022-10-05T13:56:22.053Z,6.67
2022-10-05T13:58:56.728Z,6.00
2022-10-05T14:01:36.817Z,4.50
2022-10-05T14:04:18.099Z,4.80
2022-10-05T14:06:47.158Z,4.90
2022-10-05T14:09:30.306Z,5.07
2022-10-05T14:12:21.436Z,7.23
2022-10-05T14:14:52.184Z,5.97
2022-10-05T14:17:39.278Z,6.10
2022-10-05T14:20:26.890Z,5.73
2022-10-05T14:23:02.997Z,9.10
2022-10-05T14:25:32.860Z,6.60
2022-10-05T14:28:07.411Z,9.50
2022-10-05T14:30:36.283Z,6.40
2022-10-05T14:33:17.820Z,6.40
2022-10-05T14:35:50.321Z,7.67
2022-10-05T14:38:22.585Z,7.10
2022-10-05T14:41:21.457Z,9.77
2022-10-05T14:44:02.771Z,5.77
2022-10-05T14:46:33.566Z,6.00
2022-10-05T14:49:22.236Z,6.90
2022-10-05T14:51:51.785Z,7.00
2022-10-05T14:54:41.199Z,7.73
2022-10-05T14:57:25.282Z,5.60
2022-10-05T15:00:16.481Z,7.50
2022-10-05T15:03:18.835Z,8.00
2022-10-05T15:05:52.434Z,6.27
2022-10-05T15:08:50.436Z,6.90
2022-10-05T15:11:32.410Z,6.37
2022-10-05T15:14:01.909Z,6.70
2022-10-05T15:16:39.177Z,6.60
2022-10-05T15:19:17.971Z,5.53
2022-10-05T15:22:15.149Z,6.00
2022-10-05T15:24:57.786Z,5.93
2022-10-05T15:27:40.675Z,9.47
2022-10-05T15:30:13.663Z,8.60
2022-10-05T15:33:04.422Z,6.33
2022-10-05T15:36:04.285Z,6.80
2022-10-05T15:38:41.429Z,6.30
2022-10-05T15:41:19.332Z,7.53
2022-10-05T15:43:59.074Z,5.70
2022-10-05T15:46:35.206Z,8.77
2022-10-05T15:49:27.581Z,5.20
2022-10-05T15:52:05.769Z,5.27
2022-10-05T15:55:36.329Z,5.90
2022-10-05T15:58:28.807Z,7.47
2022-10-05T16:01:05.557Z,6.77
2022-10-05T16:03:47.853Z,6.00
2022-10-05T16:06:47.048Z,6.80
2022-10-05T16:09:34.274Z,5.83
2022-10-05T16:12:16.222Z,7.27
2022-10-05T16:14:56.596Z,6.40
2022-10-05T16:17:50.973Z,5.73
2022-10-05T16:20:32.389Z,5.83
2022-10-05T16:23:09.837Z,7.03
2022-10-05T16:25:51.999Z,8.37
2022-10-05T16:28:31.073Z,6.53
2022-10-05T16:31:09.727Z,5.90
2022-10-05T16:33:54.669Z,6.70
2022-10-05T16:36:37.385Z,6.10
2022-10-05T16:39:15.353Z,7.00
2022-10-05T16:41:54.721Z,6.97
2022-10-05T16:44:36.492Z,9.37
2022-10-05T16:47:27.957Z,8.70
2022-10-05T16:50:05.140Z,11.10
2022-10-05T16:52:38.164Z,8.10
2022-10-05T16:55:14.050Z,13.53
2022-10-05T16:57:48.408Z,13.03
2022-10-05T17:00:22.046Z,11.73
2022-10-05T17:03:15.152Z,11.53
2022-10-05T17:06:18.441Z,10.10
2022-10-05T17:09:12.288Z,11.80
2022-10-05T17:12:00.124Z,13.70
2022-10-05T17:14:57.172Z,8.03
2022-10-05T17:17:43.496Z,10.67
2022-10-05T17:20:42.255Z,9.73
2022-10-05T17:23:32.494Z,10.47
2022-10-05T17:26:33.336Z,7.93
2022-10-05T17:29:16.841Z,10.50
2022-10-05T17:32:12.547Z,8.00
2022-10-05T17:35:18.192Z,9.00
2022-10-05T17:38:22.059Z,11.63
2022-10-05T17:41:23.101Z,13.27
2022-10-05T17:44:27.246Z,11.87
2022-10-05T17:46:58.562Z,8.50
2022-10-05T17:50:16.682Z,10.47
2022-10-05T17:53:03.646Z,12.57
2022-10-05T17:56:03.370Z,9.23
2022-10-05T17:59:03.716Z,9.27
2022-10-05T18:01:36.929Z,8.40
2022-10-05T18:04:39.522Z,10.60
2022-10-05T18:07:23.066Z,11.63
2022-10-05T18:10:22.356Z,10.70
2022-10-05T18:13:21.747Z,8.90
2022-10-05T18:15:50.664Z,13.23
2022-10-05T18:18:57.300Z,9.47
2022-10-05T18:21:40.640Z,18.17
2022-10-05T18:24:53.207Z,13.13
2022-10-05T18:27:52.968Z,10.60
2022-10-05T18:30:24.148Z,9.37
2022-10-05T18:33:49.403Z,6.90
2022-10-05T18:36:48.223Z,8.77
2022-10-05T18:39:45.625Z,7.47
2022-10-05T18:42:23.295Z,6.27
2022-10-05T18:44:57.608Z,6.17
2022-10-05T18:47:37.524Z,5.40
2022-10-05T18:50:21.339Z,7.50
2022-10-05T18:53:13.284Z,9.23
2022-10-05T18:55:47.907Z,5.03
2022-10-05T18:58:27.140Z,5.87
2022-10-05T19:01:20.893Z,5.73
2022-10-05T19:04:05.922Z,5.90
2022-10-05T19:06:45.735Z,6.23
2022-10-05T19:09:35.376Z,14.30
2022-10-05T19:12:15.996Z,7.83
2022-10-05T19:14:57.557Z,8.33
2022-10-05T19:17:33.174Z,5.90
2022-10-05T19:20:18.182Z,7.47
2022-10-05T19:23:08.407Z,9.00
2022-10-05T19:25:49.827Z,5.80
2022-10-05T19:28:29.022Z,7.33
2022-10-05T19:31:20.982Z,5.57
2022-10-05T19:34:10.751Z,6.73
2022-10-05T19:36:58.314Z,8.70
2022-10-05T19:39:39.391Z,7.53
2022-10-05T19:42:46.165Z,5.30
2022-10-05T19:45:22.641Z,5.23
2022-10-05T19:48:10.812Z,5.80
2022-10-05T19:50:40.405Z,4.53
2022-10-05T19:53:15.154Z,4.97
2022-10-05T19:55:45.702Z,7.60
2022-10-05T19:58:25.092Z,5.63
2022-10-05T20:00:59.576Z,9.17
2022-10-05T20:03:29.795Z,4.60
2022-10-05T20:06:01.168Z,5.43
2022-10-05T20:08:39.414Z,7.57
2022-10-05T20:11:11.755Z,5.80
2022-10-05T20:13:44.637Z,6.83
2022-10-05T20:16:47.366Z,5.17
2022-10-05T20:19:50.575Z,5.47
2022-10-05T20:22:33.495Z,7.20
2022-10-05T20:25:05.696Z,4.53
2022-10-05T20:27:46.988Z,5.13
2022-10-05T20:30:20.270Z,5.23
2022-10-05T20:32:49.868Z,4.03
2022-10-05T20:35:18.654Z,4.13
2022-10-05T20:37:46.943Z,4.63
2022-10-05T20:40:17.709Z,4.97
2022-10-05T20:42:46.281Z,4.50
2022-10-05T20:45:17.340Z,6.57
2022-10-05T20:47:46.584Z,3.80
2022-10-05T20:50:15.778Z,4.57
2022-10-05T20:52:44.700Z,4.73
2022-10-05T20:55:14.008Z,3.63
2022-10-05T20:57:42.625Z,4.07
2022-10-05T21:00:12.882Z,4.80
2022-10-05T21:02:42.591Z,4.30
2022-10-05T21:05:11.178Z,4.70
2022-10-05T21:07:40.885Z,4.37
2022-10-05T21:10:10.217Z,4.60
2022-10-05T21:12:38.782Z,4.57
2022-10-05T21:15:08.575Z,3.87
2022-10-05T21:17:38.071Z,5.40
2022-10-05T21:20:11.629Z,5.60
2022-10-05T21:22:40.134Z,4.13
2022-10-05T21:25:09.471Z,4.20
2022-10-05T21:27:37.833Z,4.03
2022-10-05T21:30:07.457Z,3.70
2022-10-05T21:32:37.667Z,3.77
2022-10-05T21:35:10.827Z,2.90
2022-10-05T21:37:39.172Z,6.23
2022-10-05T21:40:08.474Z,3.93
2022-10-05T21:42:36.982Z,4.23
2022-10-05T21:45:06.658Z,8.07
2022-10-05T21:47:35.047Z,4.57
2022-10-05T21:50:05.333Z,4.20
2022-10-05T21:52:35.870Z,6.07
2022-10-05T21:55:04.710Z,4.73
2022-10-05T21:57:34.917Z,4.13
2022-10-05T22:00:03.510Z,4.83
2022-10-05T22:02:34.876Z,4.20
2022-10-05T22:05:03.343Z,4.30
2022-10-05T22:07:32.291Z,3.57
2022-10-05T22:10:05.832Z,3.30
2022-10-05T22:12:35.503Z,5.73
2022-10-05T22:15:04.907Z,3.30
2022-10-05T22:17:33.811Z,5.53
2022-10-05T22:20:02.974Z,5.60
2022-10-05T22:22:31.462Z,3.43
2022-10-05T22:25:01.159Z,4.77
2022-10-05T22:27:30.658Z,5.80
2022-10-05T22:29:59.391Z,5.77
2022-10-05T22:32:27.764Z,6.23
2022-10-05T22:34:56.125Z,5.10
2022-10-05T22:37:24.616Z,4.40
2022-10-05T22:39:55.202Z,3.60
2022-10-05T22:42:24.958Z,6.30
2022-10-05T22:44:53.350Z,7.37
2022-10-05T22:47:21.671Z,4.30
2022-10-05T22:49:49.989Z,6.30
2022-10-05T22:52:18.409Z,5.13
2022-10-05T22:54:46.783Z,4.10
2022-10-05T22:57:15.230Z,5.10
2022-10-05T22:59:45.038Z,4.83
2022-10-05T23:02:14.401Z,5.37
2022-10-05T23:04:42.856Z,4.90
2022-10-05T23:07:11.265Z,4.27
2022-10-05T23:09:39.609Z,4.70
2022-10-05T23:12:08.090Z,6.10
2022-10-05T23:14:36.481Z,6.77
2022-10-05T23:17:07.922Z,9.90
2022-10-05T23:19:36.298Z,5.20
2022-10-05T23:22:10.740Z,6.20
2022-10-05T23:24:39.087Z,4.60
2022-10-05T23:27:07.448Z,5.07
2022-10-05T23:29:35.733Z,5.27
2022-10-05T23:32:05.783Z,5.90
2022-10-05T23:34:34.138Z,8.43
2022-10-05T23:37:02.617Z,5.30
2022-10-05T23:39:31.055Z,4.80
2022-10-05T23:42:00.347Z,4.97
2022-10-05T23:44:28.708Z,4.83
2022-10-05T23:46:57.066Z,12.53
2022-10-05T23:49:26.825Z,12.23
2022-10-05T23:51:55.122Z,4.83
2022-10-05T23:54:23.546Z,6.43
2022-10-05T23:56:51.846Z,5.27
2022-10-05T23:59:20.185Z,4.60
